sensor_id;sensor_type;location;lat;lon;timestamp;temperature;humidity
13436;DHT22;6790;49.520;8.504;2023-05-24T00:00:39;11.10;99.90
13436;DHT22;6790;49.520;8.504;2023-05-24T00:03:05;11.10;99.90
13436;DHT22;6790;49.520;8.504;2023-05-24T00:05:31;11.10;99.90
13436;DHT22;6790;49.520;8.504;2023-05-24T00:07:58;11.00;99.90
13436;DHT22;6790;49.520;8.504;2023-05-24T00:10:24;10.90;99.90
13436;DHT22;6790;49.520;8.504;2023-05-24T00:12:50;10.90;99.90
13436;DHT22;6790;49.520;8.504;2023-05-24T00:15:16;10.90;99.90
13436;DHT22;6790;49.520;8.504;2023-05-24T00:17:42;10.80;99.90
13436;DHT22;6790;49.520;8.504;2023-05-24T00:20:08;10.80;99.90
13436;DHT22;6790;49.520;8.504;2023-05-24T00:22:39;10.80;99.90
13436;DHT22;6790;49.520;8.504;2023-05-24T00:25:06;10.70;99.90
13436;DHT22;6790;49.520;8.504;2023-05-24T00:27:32;10.70;99.90
13436;DHT22;6790;49.520;8.504;2023-05-24T00:29:58;10.60;99.90
13436;DHT22;6790;49.520;8.504;2023-05-24T00:32:23;10.60;99.90
13436;DHT22;6790;49.520;8.504;2023-05-24T00:34:49;10.50;99.90
13436;DHT22;6790;49.520;8.504;2023-05-24T00:37:15;10.50;99.90
13436;DHT22;6790;49.520;8.504;2023-05-24T00:39:42;10.50;99.90
13436;DHT22;6790;49.520;8.504;2023-05-24T00:42:08;10.40;99.90
13436;DHT22;6790;49.520;8.504;2023-05-24T00:44:33;10.40;99.90
13436;DHT22;6790;49.520;8.504;2023-05-24T00:46:59;10.40;99.90
13436;DHT22;6790;49.520;8.504;2023-05-24T00:49:25;10.40;99.90
13436;DHT22;6790;49.520;8.504;2023-05-24T00:51:52;10.40;99.90
13436;DHT22;6790;49.520;8.504;2023-05-24T00:54:18;10.30;99.90
13436;DHT22;6790;49.520;8.504;2023-05-24T00:56:45;10.30;99.90
13436;DHT22;6790;49.520;8.504;2023-05-24T00:59:12;10.20;99.90
13436;DHT22;6790;49.520;8.504;2023-05-24T01:01:38;10.20;99.90
13436;DHT22;6790;49.520;8.504;2023-05-24T01:04:06;10.20;99.90
13436;DHT22;6790;49.520;8.504;2023-05-24T01:06:41;10.20;99.90
13436;DHT22;6790;49.520;8.504;2023-05-24T01:09:30;10.20;99.90
13436;DHT22;6790;49.520;8.504;2023-05-24T01:15:07;10.10;99.90
13436;DHT22;6790;49.520;8.504;2023-05-24T01:17:50;10.20;99.90
13436;DHT22;6790;49.520;8.504;2023-05-24T01:20:20;10.00;99.90
13436;DHT22;6790;49.520;8.504;2023-05-24T01:23:04;10.10;99.90
13436;DHT22;6790;49.520;8.504;2023-05-24T01:28:44;10.00;99.90
13436;DHT22;6790;49.520;8.504;2023-05-24T01:31:12;10.00;99.90
13436;DHT22;6790;49.520;8.504;2023-05-24T01:33:43;10.00;99.90
13436;DHT22;6790;49.520;8.504;2023-05-24T01:36:09;10.00;99.90
13436;DHT22;6790;49.520;8.504;2023-05-24T01:38:36;9.90;99.90
13436;DHT22;6790;49.520;8.504;2023-05-24T01:41:09;9.90;99.90
13436;DHT22;6790;49.520;8.504;2023-05-24T01:44:07;9.90;99.90
13436;DHT22;6790;49.520;8.504;2023-05-24T01:46:41;9.90;99.90
13436;DHT22;6790;49.520;8.504;2023-05-24T01:49:22;9.80;99.90
13436;DHT22;6790;49.520;8.504;2023-05-24T01:52:04;9.80;99.90
13436;DHT22;6790;49.520;8.504;2023-05-24T01:54:37;9.80;99.90
13436;DHT22;6790;49.520;8.504;2023-05-24T01:57:07;9.80;99.90
13436;DHT22;6790;49.520;8.504;2023-05-24T01:59:34;9.80;99.90
13436;DHT22;6790;49.520;8.504;2023-05-24T02:02:01;9.90;99.90
13436;DHT22;6790;49.520;8.504;2023-05-24T02:04:27;9.90;99.90
13436;DHT22;6790;49.520;8.504;2023-05-24T02:06:53;9.90;99.90
13436;DHT22;6790;49.520;8.504;2023-05-24T02:09:18;9.90;99.90
13436;DHT22;6790;49.520;8.504;2023-05-24T02:11:44;9.90;99.90
13436;DHT22;6790;49.520;8.504;2023-05-24T02:14:10;10.00;99.90
13436;DHT22;6790;49.520;8.504;2023-05-24T02:16:35;10.10;99.90
13436;DHT22;6790;49.520;8.504;2023-05-24T02:19:07;10.10;99.90
13436;DHT22;6790;49.520;8.504;2023-05-24T02:21:33;10.10;99.90
13436;DHT22;6790;49.520;8.504;2023-05-24T02:23:59;10.10;99.90
13436;DHT22;6790;49.520;8.504;2023-05-24T02:26:25;10.10;99.90
13436;DHT22;6790;49.520;8.504;2023-05-24T02:28:50;10.10;99.90
13436;DHT22;6790;49.520;8.504;2023-05-24T02:31:16;10.10;99.90
13436;DHT22;6790;49.520;8.504;2023-05-24T02:33:42;10.20;99.90
13436;DHT22;6790;49.520;8.504;2023-05-24T02:36:08;10.20;99.90
13436;DHT22;6790;49.520;8.504;2023-05-24T02:38:34;10.20;99.90
13436;DHT22;6790;49.520;8.504;2023-05-24T02:41:01;10.20;99.90
13436;DHT22;6790;49.520;8.504;2023-05-24T02:43:27;10.20;99.90
13436;DHT22;6790;49.520;8.504;2023-05-24T02:45:53;10.20;99.90
13436;DHT22;6790;49.520;8.504;2023-05-24T02:48:19;10.20;99.90
13436;DHT22;6790;49.520;8.504;2023-05-24T02:50:45;10.20;99.90
13436;DHT22;6790;49.520;8.504;2023-05-24T02:53:11;10.20;99.90
13436;DHT22;6790;49.520;8.504;2023-05-24T02:55:37;10.20;99.90
13436;DHT22;6790;49.520;8.504;2023-05-24T02:58:03;10.20;99.90
13436;DHT22;6790;49.520;8.504;2023-05-24T03:00:28;10.20;99.90
13436;DHT22;6790;49.520;8.504;2023-05-24T03:02:54;10.20;99.90
13436;DHT22;6790;49.520;8.504;2023-05-24T03:05:21;10.20;99.90
13436;DHT22;6790;49.520;8.504;2023-05-24T03:07:47;10.10;99.90
13436;DHT22;6790;49.520;8.504;2023-05-24T03:10:13;10.10;99.90
13436;DHT22;6790;49.520;8.504;2023-05-24T03:12:38;10.10;99.90
13436;DHT22;6790;49.520;8.504;2023-05-24T03:15:05;10.00;99.90
13436;DHT22;6790;49.520;8.504;2023-05-24T03:17:31;10.10;99.90
13436;DHT22;6790;49.520;8.504;2023-05-24T03:19:57;10.00;99.90
13436;DHT22;6790;49.520;8.504;2023-05-24T03:22:22;10.00;99.90
13436;DHT22;6790;49.520;8.504;2023-05-24T03:24:48;10.00;99.90
13436;DHT22;6790;49.520;8.504;2023-05-24T03:27:14;10.00;99.90
13436;DHT22;6790;49.520;8.504;2023-05-24T03:29:39;10.00;99.90
13436;DHT22;6790;49.520;8.504;2023-05-24T03:32:05;9.90;99.90
13436;DHT22;6790;49.520;8.504;2023-05-24T03:34:31;9.90;99.90
13436;DHT22;6790;49.520;8.504;2023-05-24T03:36:56;9.90;99.90
13436;DHT22;6790;49.520;8.504;2023-05-24T03:39:22;9.90;99.90
13436;DHT22;6790;49.520;8.504;2023-05-24T03:41:48;9.90;99.90
13436;DHT22;6790;49.520;8.504;2023-05-24T03:44:13;9.80;99.90
13436;DHT22;6790;49.520;8.504;2023-05-24T03:46:39;9.80;99.90
13436;DHT22;6790;49.520;8.504;2023-05-24T03:49:06;9.80;99.90
13436;DHT22;6790;49.520;8.504;2023-05-24T03:51:32;9.90;99.90
13436;DHT22;6790;49.520;8.504;2023-05-24T03:53:58;9.80;99.90
13436;DHT22;6790;49.520;8.504;2023-05-24T03:56:24;9.80;99.90
13436;DHT22;6790;49.520;8.504;2023-05-24T03:58:51;9.80;99.90
13436;DHT22;6790;49.520;8.504;2023-05-24T04:01:17;9.80;99.90
13436;DHT22;6790;49.520;8.504;2023-05-24T04:03:44;9.80;99.90
13436;DHT22;6790;49.520;8.504;2023-05-24T04:06:13;9.80;99.90
13436;DHT22;6790;49.520;8.504;2023-05-24T04:08:38;9.90;99.90
13436;DHT22;6790;49.520;8.504;2023-05-24T04:11:04;9.80;99.90
13436;DHT22;6790;49.520;8.504;2023-05-24T04:13:30;9.80;99.90
13436;DHT22;6790;49.520;8.504;2023-05-24T04:15:56;9.80;99.90
13436;DHT22;6790;49.520;8.504;2023-05-24T04:18:21;9.80;99.90
13436;DHT22;6790;49.520;8.504;2023-05-24T04:20:48;9.80;99.90
13436;DHT22;6790;49.520;8.504;2023-05-24T04:23:13;9.80;99.90
13436;DHT22;6790;49.520;8.504;2023-05-24T04:25:39;9.80;99.90
13436;DHT22;6790;49.520;8.504;2023-05-24T04:28:05;9.70;99.90
13436;DHT22;6790;49.520;8.504;2023-05-24T04:30:31;9.60;99.90
13436;DHT22;6790;49.520;8.504;2023-05-24T04:32:57;9.60;99.90
13436;DHT22;6790;49.520;8.504;2023-05-24T04:35:24;9.60;99.90
13436;DHT22;6790;49.520;8.504;2023-05-24T04:37:50;9.60;99.90
13436;DHT22;6790;49.520;8.504;2023-05-24T04:40:16;9.50;99.90
13436;DHT22;6790;49.520;8.504;2023-05-24T04:42:45;9.40;99.90
13436;DHT22;6790;49.520;8.504;2023-05-24T04:45:11;9.40;99.90
13436;DHT22;6790;49.520;8.504;2023-05-24T04:47:36;9.40;99.90
13436;DHT22;6790;49.520;8.504;2023-05-24T04:50:02;9.50;99.90
13436;DHT22;6790;49.520;8.504;2023-05-24T04:52:28;9.50;99.90
13436;DHT22;6790;49.520;8.504;2023-05-24T04:54:55;9.50;99.90
13436;DHT22;6790;49.520;8.504;2023-05-24T04:57:22;9.40;99.90
13436;DHT22;6790;49.520;8.504;2023-05-24T04:59:48;9.40;99.90
13436;DHT22;6790;49.520;8.504;2023-05-24T05:02:14;9.50;99.90
13436;DHT22;6790;49.520;8.504;2023-05-24T05:04:39;9.60;99.90
13436;DHT22;6790;49.520;8.504;2023-05-24T05:07:06;9.60;99.90
13436;DHT22;6790;49.520;8.504;2023-05-24T05:09:32;9.80;99.90
13436;DHT22;6790;49.520;8.504;2023-05-24T05:11:58;9.90;99.90
13436;DHT22;6790;49.520;8.504;2023-05-24T05:14:24;10.00;99.90
13436;DHT22;6790;49.520;8.504;2023-05-24T05:16:50;10.00;99.90
13436;DHT22;6790;49.520;8.504;2023-05-24T05:19:15;9.90;99.90
13436;DHT22;6790;49.520;8.504;2023-05-24T05:21:41;9.90;99.90
13436;DHT22;6790;49.520;8.504;2023-05-24T05:24:07;10.10;99.90
13436;DHT22;6790;49.520;8.504;2023-05-24T05:26:33;10.20;99.90
13436;DHT22;6790;49.520;8.504;2023-05-24T05:28:59;10.40;99.90
13436;DHT22;6790;49.520;8.504;2023-05-24T05:31:25;10.40;99.90
13436;DHT22;6790;49.520;8.504;2023-05-24T05:33:51;10.30;99.90
13436;DHT22;6790;49.520;8.504;2023-05-24T05:36:17;10.30;99.90
13436;DHT22;6790;49.520;8.504;2023-05-24T05:38:43;10.30;99.90
13436;DHT22;6790;49.520;8.504;2023-05-24T05:41:08;10.10;99.90
13436;DHT22;6790;49.520;8.504;2023-05-24T05:43:34;10.10;99.90
13436;DHT22;6790;49.520;8.504;2023-05-24T05:46:00;10.10;99.90
13436;DHT22;6790;49.520;8.504;2023-05-24T05:48:25;10.10;99.90
13436;DHT22;6790;49.520;8.504;2023-05-24T05:50:51;10.10;99.90
13436;DHT22;6790;49.520;8.504;2023-05-24T05:53:17;10.00;99.90
13436;DHT22;6790;49.520;8.504;2023-05-24T05:55:43;10.10;99.90
13436;DHT22;6790;49.520;8.504;2023-05-24T05:58:08;10.40;99.90
13436;DHT22;6790;49.520;8.504;2023-05-24T06:00:34;10.70;99.90
13436;DHT22;6790;49.520;8.504;2023-05-24T06:03:00;10.90;99.90
13436;DHT22;6790;49.520;8.504;2023-05-24T06:05:26;11.00;99.90
13436;DHT22;6790;49.520;8.504;2023-05-24T06:07:51;11.20;99.90
13436;DHT22;6790;49.520;8.504;2023-05-24T06:10:17;11.30;99.90
13436;DHT22;6790;49.520;8.504;2023-05-24T06:12:43;11.40;99.90
13436;DHT22;6790;49.520;8.504;2023-05-24T06:15:09;11.50;99.90
13436;DHT22;6790;49.520;8.504;2023-05-24T06:17:35;11.70;99.90
13436;DHT22;6790;49.520;8.504;2023-05-24T06:20:02;11.70;99.90
13436;DHT22;6790;49.520;8.504;2023-05-24T06:22:32;11.60;99.90
13436;DHT22;6790;49.520;8.504;2023-05-24T06:24:57;11.80;99.90
13436;DHT22;6790;49.520;8.504;2023-05-24T06:27:23;11.90;99.90
13436;DHT22;6790;49.520;8.504;2023-05-24T06:29:50;12.10;99.90
13436;DHT22;6790;49.520;8.504;2023-05-24T06:32:15;12.10;99.90
13436;DHT22;6790;49.520;8.504;2023-05-24T06:34:41;12.30;99.90
13436;DHT22;6790;49.520;8.504;2023-05-24T06:37:07;12.30;99.90
13436;DHT22;6790;49.520;8.504;2023-05-24T06:39:35;12.40;99.90
13436;DHT22;6790;49.520;8.504;2023-05-24T06:42:01;12.30;99.90
13436;DHT22;6790;49.520;8.504;2023-05-24T06:44:27;12.50;99.90
13436;DHT22;6790;49.520;8.504;2023-05-24T06:47:01;12.30;99.90
13436;DHT22;6790;49.520;8.504;2023-05-24T06:49:27;12.30;99.90
13436;DHT22;6790;49.520;8.504;2023-05-24T06:51:53;12.50;99.90
13436;DHT22;6790;49.520;8.504;2023-05-24T06:54:19;12.70;99.90
13436;DHT22;6790;49.520;8.504;2023-05-24T06:56:46;12.90;99.90
13436;DHT22;6790;49.520;8.504;2023-05-24T06:59:12;13.10;99.70
13436;DHT22;6790;49.520;8.504;2023-05-24T07:01:38;13.00;97.70
13436;DHT22;6790;49.520;8.504;2023-05-24T07:04:08;12.90;98.50
13436;DHT22;6790;49.520;8.504;2023-05-24T07:06:34;13.10;99.90
13436;DHT22;6790;49.520;8.504;2023-05-24T07:09:02;13.30;98.10
13436;DHT22;6790;49.520;8.504;2023-05-24T07:11:29;13.30;97.50
13436;DHT22;6790;49.520;8.504;2023-05-24T07:13:56;13.50;97.60
13436;DHT22;6790;49.520;8.504;2023-05-24T07:16:22;13.50;96.50
13436;DHT22;6790;49.520;8.504;2023-05-24T07:18:47;13.50;96.30
13436;DHT22;6790;49.520;8.504;2023-05-24T07:21:13;13.40;94.90
13436;DHT22;6790;49.520;8.504;2023-05-24T07:23:39;13.50;95.00
13436;DHT22;6790;49.520;8.504;2023-05-24T07:26:05;13.60;94.80
13436;DHT22;6790;49.520;8.504;2023-05-24T07:28:31;13.70;95.40
13436;DHT22;6790;49.520;8.504;2023-05-24T07:30:56;13.80;94.70
13436;DHT22;6790;49.520;8.504;2023-05-24T07:33:22;13.90;95.60
13436;DHT22;6790;49.520;8.504;2023-05-24T07:35:48;13.90;94.90
13436;DHT22;6790;49.520;8.504;2023-05-24T07:38:18;14.20;94.50
13436;DHT22;6790;49.520;8.504;2023-05-24T07:40:45;14.10;94.20
13436;DHT22;6790;49.520;8.504;2023-05-24T07:43:10;14.20;92.60
13436;DHT22;6790;49.520;8.504;2023-05-24T07:45:36;14.40;93.70
13436;DHT22;6790;49.520;8.504;2023-05-24T07:48:02;14.50;92.00
13436;DHT22;6790;49.520;8.504;2023-05-24T07:50:28;14.50;93.50
13436;DHT22;6790;49.520;8.504;2023-05-24T07:52:55;14.70;92.40
13436;DHT22;6790;49.520;8.504;2023-05-24T07:55:21;14.50;92.60
13436;DHT22;6790;49.520;8.504;2023-05-24T07:57:47;14.50;91.40
13436;DHT22;6790;49.520;8.504;2023-05-24T08:00:13;14.60;92.20
13436;DHT22;6790;49.520;8.504;2023-05-24T08:02:43;14.60;92.50
13436;DHT22;6790;49.520;8.504;2023-05-24T08:05:13;14.60;92.60
13436;DHT22;6790;49.520;8.504;2023-05-24T08:07:40;14.80;92.40
13436;DHT22;6790;49.520;8.504;2023-05-24T08:10:08;14.80;89.40
13436;DHT22;6790;49.520;8.504;2023-05-24T08:12:35;14.60;87.70
13436;DHT22;6790;49.520;8.504;2023-05-24T08:15:00;14.60;90.80
13436;DHT22;6790;49.520;8.504;2023-05-24T08:17:26;14.80;90.10
13436;DHT22;6790;49.520;8.504;2023-05-24T08:19:52;15.20;91.50
13436;DHT22;6790;49.520;8.504;2023-05-24T08:22:18;15.30;88.30
13436;DHT22;6790;49.520;8.504;2023-05-24T08:24:44;15.30;89.40
13436;DHT22;6790;49.520;8.504;2023-05-24T08:27:09;15.60;88.70
13436;DHT22;6790;49.520;8.504;2023-05-24T08:29:36;15.50;91.70
13436;DHT22;6790;49.520;8.504;2023-05-24T08:32:03;15.50;90.00
13436;DHT22;6790;49.520;8.504;2023-05-24T08:34:36;15.80;88.50
13436;DHT22;6790;49.520;8.504;2023-05-24T08:37:03;15.90;86.00
13436;DHT22;6790;49.520;8.504;2023-05-24T08:39:29;15.50;86.70
13436;DHT22;6790;49.520;8.504;2023-05-24T08:41:56;15.60;86.70
13436;DHT22;6790;49.520;8.504;2023-05-24T08:44:23;15.50;86.10
13436;DHT22;6790;49.520;8.504;2023-05-24T08:46:50;15.70;85.20
13436;DHT22;6790;49.520;8.504;2023-05-24T08:49:17;15.70;84.40
13436;DHT22;6790;49.520;8.504;2023-05-24T08:51:43;15.70;79.00
13436;DHT22;6790;49.520;8.504;2023-05-24T08:54:10;16.20;78.30
13436;DHT22;6790;49.520;8.504;2023-05-24T08:56:39;16.30;80.10
13436;DHT22;6790;49.520;8.504;2023-05-24T08:59:06;15.90;80.60
13436;DHT22;6790;49.520;8.504;2023-05-24T09:01:33;16.10;81.50
13436;DHT22;6790;49.520;8.504;2023-05-24T09:04:02;16.30;80.50
13436;DHT22;6790;49.520;8.504;2023-05-24T09:06:29;16.20;79.70
13436;DHT22;6790;49.520;8.504;2023-05-24T09:08:55;16.30;78.90
13436;DHT22;6790;49.520;8.504;2023-05-24T09:11:24;16.30;78.40
13436;DHT22;6790;49.520;8.504;2023-05-24T09:13:51;16.40;74.70
13436;DHT22;6790;49.520;8.504;2023-05-24T09:16:20;16.60;70.90
13436;DHT22;6790;49.520;8.504;2023-05-24T09:18:46;17.00;72.60
13436;DHT22;6790;49.520;8.504;2023-05-24T09:21:12;16.50;72.10
13436;DHT22;6790;49.520;8.504;2023-05-24T09:23:39;16.70;76.60
13436;DHT22;6790;49.520;8.504;2023-05-24T09:26:06;16.50;75.30
13436;DHT22;6790;49.520;8.504;2023-05-24T09:28:34;16.30;70.90
13436;DHT22;6790;49.520;8.504;2023-05-24T09:31:01;16.60;73.80
13436;DHT22;6790;49.520;8.504;2023-05-24T09:33:29;16.90;72.30
13436;DHT22;6790;49.520;8.504;2023-05-24T09:36:01;17.60;71.30
13436;DHT22;6790;49.520;8.504;2023-05-24T09:38:28;17.70;72.00
13436;DHT22;6790;49.520;8.504;2023-05-24T09:41:05;17.30;63.00
13436;DHT22;6790;49.520;8.504;2023-05-24T09:43:33;17.10;67.50
13436;DHT22;6790;49.520;8.504;2023-05-24T09:46:04;17.10;73.00
13436;DHT22;6790;49.520;8.504;2023-05-24T09:48:30;17.00;69.20
13436;DHT22;6790;49.520;8.504;2023-05-24T09:51:01;17.30;71.60
13436;DHT22;6790;49.520;8.504;2023-05-24T09:53:30;17.20;66.30
13436;DHT22;6790;49.520;8.504;2023-05-24T09:55:58;17.20;77.20
13436;DHT22;6790;49.520;8.504;2023-05-24T09:58:29;17.00;67.40
13436;DHT22;6790;49.520;8.504;2023-05-24T10:01:07;16.20;67.10
13436;DHT22;6790;49.520;8.504;2023-05-24T10:03:35;15.80;73.50
13436;DHT22;6790;49.520;8.504;2023-05-24T10:06:02;15.60;77.30
13436;DHT22;6790;49.520;8.504;2023-05-24T10:08:33;15.20;79.30
13436;DHT22;6790;49.520;8.504;2023-05-24T10:11:03;14.90;79.80
13436;DHT22;6790;49.520;8.504;2023-05-24T10:13:31;14.90;79.20
13436;DHT22;6790;49.520;8.504;2023-05-24T10:15:58;15.10;84.30
13436;DHT22;6790;49.520;8.504;2023-05-24T10:18:23;15.60;79.00
13436;DHT22;6790;49.520;8.504;2023-05-24T10:20:50;16.00;76.90
13436;DHT22;6790;49.520;8.504;2023-05-24T10:23:19;16.30;74.50
13436;DHT22;6790;49.520;8.504;2023-05-24T10:25:55;16.40;75.90
13436;DHT22;6790;49.520;8.504;2023-05-24T10:28:28;16.10;74.30
13436;DHT22;6790;49.520;8.504;2023-05-24T10:31:16;16.50;73.00
13436;DHT22;6790;49.520;8.504;2023-05-24T10:33:44;16.90;71.50
13436;DHT22;6790;49.520;8.504;2023-05-24T10:36:13;16.90;69.50
13436;DHT22;6790;49.520;8.504;2023-05-24T10:38:40;16.90;66.50
13436;DHT22;6790;49.520;8.504;2023-05-24T10:41:07;17.20;60.20
13436;DHT22;6790;49.520;8.504;2023-05-24T10:43:34;17.40;66.00
13436;DHT22;6790;49.520;8.504;2023-05-24T10:46:03;17.30;63.30
13436;DHT22;6790;49.520;8.504;2023-05-24T10:48:33;17.50;55.20
13436;DHT22;6790;49.520;8.504;2023-05-24T10:51:16;17.10;55.20
13436;DHT22;6790;49.520;8.504;2023-05-24T10:53:56;17.30;57.50
13436;DHT22;6790;49.520;8.504;2023-05-24T10:56:21;17.80;57.30
13436;DHT22;6790;49.520;8.504;2023-05-24T11:01:28;18.00;58.70
13436;DHT22;6790;49.520;8.504;2023-05-24T11:04:10;17.80;56.70
13436;DHT22;6790;49.520;8.504;2023-05-24T11:09:14;17.30;53.60
13436;DHT22;6790;49.520;8.504;2023-05-24T11:11:47;17.20;51.30
13436;DHT22;6790;49.520;8.504;2023-05-24T11:14:18;17.40;54.60
13436;DHT22;6790;49.520;8.504;2023-05-24T11:16:48;17.80;57.40
13436;DHT22;6790;49.520;8.504;2023-05-24T11:19:20;17.90;56.90
13436;DHT22;6790;49.520;8.504;2023-05-24T11:21:51;18.10;55.50
13436;DHT22;6790;49.520;8.504;2023-05-24T11:24:23;18.20;53.00
13436;DHT22;6790;49.520;8.504;2023-05-24T11:26:50;18.30;52.50
13436;DHT22;6790;49.520;8.504;2023-05-24T11:29:17;18.10;55.60
13436;DHT22;6790;49.520;8.504;2023-05-24T11:31:52;18.00;54.70
13436;DHT22;6790;49.520;8.504;2023-05-24T11:34:23;18.20;52.40
13436;DHT22;6790;49.520;8.504;2023-05-24T11:36:51;18.30;52.10
13436;DHT22;6790;49.520;8.504;2023-05-24T11:39:17;18.40;51.80
13436;DHT22;6790;49.520;8.504;2023-05-24T11:41:43;18.70;52.90
13436;DHT22;6790;49.520;8.504;2023-05-24T11:44:16;18.80;53.80
13436;DHT22;6790;49.520;8.504;2023-05-24T11:46:48;18.20;46.70
13436;DHT22;6790;49.520;8.504;2023-05-24T11:49:23;18.20;52.20
13436;DHT22;6790;49.520;8.504;2023-05-24T11:51:49;18.50;52.90
13436;DHT22;6790;49.520;8.504;2023-05-24T11:54:18;18.70;49.40
13436;DHT22;6790;49.520;8.504;2023-05-24T11:56:43;18.70;50.40
13436;DHT22;6790;49.520;8.504;2023-05-24T11:59:21;18.50;52.00
13436;DHT22;6790;49.520;8.504;2023-05-24T12:02:01;18.20;50.70
13436;DHT22;6790;49.520;8.504;2023-05-24T12:04:30;18.50;50.50
13436;DHT22;6790;49.520;8.504;2023-05-24T12:06:57;18.50;50.40
13436;DHT22;6790;49.520;8.504;2023-05-24T12:09:23;18.80;53.00
13436;DHT22;6790;49.520;8.504;2023-05-24T12:11:50;19.10;48.00
13436;DHT22;6790;49.520;8.504;2023-05-24T12:14:18;19.30;46.60
13436;DHT22;6790;49.520;8.504;2023-05-24T12:16:45;19.70;50.60
13436;DHT22;6790;49.520;8.504;2023-05-24T12:19:21;19.30;44.90
13436;DHT22;6790;49.520;8.504;2023-05-24T12:21:50;19.40;46.40
13436;DHT22;6790;49.520;8.504;2023-05-24T12:24:23;19.60;46.80
13436;DHT22;6790;49.520;8.504;2023-05-24T12:26:50;19.80;51.10
13436;DHT22;6790;49.520;8.504;2023-05-24T12:29:16;19.40;45.50
13436;DHT22;6790;49.520;8.504;2023-05-24T12:31:47;19.90;55.30
13436;DHT22;6790;49.520;8.504;2023-05-24T12:34:23;20.00;48.20
13436;DHT22;6790;49.520;8.504;2023-05-24T12:36:49;19.70;45.70
13436;DHT22;6790;49.520;8.504;2023-05-24T12:39:25;19.20;42.70
13436;DHT22;6790;49.520;8.504;2023-05-24T12:41:57;19.90;45.60
13436;DHT22;6790;49.520;8.504;2023-05-24T12:44:41;19.50;43.80
13436;DHT22;6790;49.520;8.504;2023-05-24T12:47:07;19.80;47.20
13436;DHT22;6790;49.520;8.504;2023-05-24T12:49:33;20.00;46.50
13436;DHT22;6790;49.520;8.504;2023-05-24T12:51:59;19.70;44.50
13436;DHT22;6790;49.520;8.504;2023-05-24T12:54:27;20.00;45.50
13436;DHT22;6790;49.520;8.504;2023-05-24T12:56:54;20.00;43.00
13436;DHT22;6790;49.520;8.504;2023-05-24T12:59:20;20.00;40.60
13436;DHT22;6790;49.520;8.504;2023-05-24T13:01:46;20.00;44.00
13436;DHT22;6790;49.520;8.504;2023-05-24T13:04:17;20.30;41.60
13436;DHT22;6790;49.520;8.504;2023-05-24T13:06:43;20.40;42.70
13436;DHT22;6790;49.520;8.504;2023-05-24T13:09:10;20.40;40.10
13436;DHT22;6790;49.520;8.504;2023-05-24T13:11:35;19.90;40.40
13436;DHT22;6790;49.520;8.504;2023-05-24T13:14:02;19.90;42.80
13436;DHT22;6790;49.520;8.504;2023-05-24T13:16:28;20.10;44.30
13436;DHT22;6790;49.520;8.504;2023-05-24T13:18:54;20.10;43.20
13436;DHT22;6790;49.520;8.504;2023-05-24T13:21:22;20.40;48.00
13436;DHT22;6790;49.520;8.504;2023-05-24T13:23:48;19.60;50.70
13436;DHT22;6790;49.520;8.504;2023-05-24T13:26:14;19.20;47.80
13436;DHT22;6790;49.520;8.504;2023-05-24T13:28:39;19.90;45.50
13436;DHT22;6790;49.520;8.504;2023-05-24T13:31:05;20.10;40.60
13436;DHT22;6790;49.520;8.504;2023-05-24T13:33:31;20.10;40.20
13436;DHT22;6790;49.520;8.504;2023-05-24T13:35:57;20.40;43.70
13436;DHT22;6790;49.520;8.504;2023-05-24T13:38:23;21.00;38.30
13436;DHT22;6790;49.520;8.504;2023-05-24T13:40:49;21.00;48.50
13436;DHT22;6790;49.520;8.504;2023-05-24T13:43:16;20.70;40.50
13436;DHT22;6790;49.520;8.504;2023-05-24T13:45:42;20.50;43.70
13436;DHT22;6790;49.520;8.504;2023-05-24T13:48:08;20.40;40.70
13436;DHT22;6790;49.520;8.504;2023-05-24T13:50:35;20.10;48.30
13436;DHT22;6790;49.520;8.504;2023-05-24T13:53:01;20.60;41.00
13436;DHT22;6790;49.520;8.504;2023-05-24T13:55:29;20.40;43.70
13436;DHT22;6790;49.520;8.504;2023-05-24T13:57:55;19.50;37.20
13436;DHT22;6790;49.520;8.504;2023-05-24T14:00:21;19.70;39.50
13436;DHT22;6790;49.520;8.504;2023-05-24T14:02:48;19.70;41.30
13436;DHT22;6790;49.520;8.504;2023-05-24T14:05:14;19.70;42.30
13436;DHT22;6790;49.520;8.504;2023-05-24T14:07:39;19.60;41.50
13436;DHT22;6790;49.520;8.504;2023-05-24T14:10:06;19.50;41.60
13436;DHT22;6790;49.520;8.504;2023-05-24T14:12:32;19.20;44.30
13436;DHT22;6790;49.520;8.504;2023-05-24T14:14:58;18.70;41.90
13436;DHT22;6790;49.520;8.504;2023-05-24T14:17:23;18.60;44.10
13436;DHT22;6790;49.520;8.504;2023-05-24T14:19:49;18.20;42.50
13436;DHT22;6790;49.520;8.504;2023-05-24T14:22:15;17.90;44.00
13436;DHT22;6790;49.520;8.504;2023-05-24T14:24:41;17.90;45.50
13436;DHT22;6790;49.520;8.504;2023-05-24T14:27:07;18.30;43.40
13436;DHT22;6790;49.520;8.504;2023-05-24T14:29:32;18.40;45.60
13436;DHT22;6790;49.520;8.504;2023-05-24T14:31:58;18.10;43.20
13436;DHT22;6790;49.520;8.504;2023-05-24T14:34:24;18.30;44.20
13436;DHT22;6790;49.520;8.504;2023-05-24T14:36:50;18.60;46.30
13436;DHT22;6790;49.520;8.504;2023-05-24T14:39:16;18.40;41.80
13436;DHT22;6790;49.520;8.504;2023-05-24T14:41:41;18.10;43.30
13436;DHT22;6790;49.520;8.504;2023-05-24T14:44:07;17.60;43.00
13436;DHT22;6790;49.520;8.504;2023-05-24T14:46:33;17.70;44.40
13436;DHT22;6790;49.520;8.504;2023-05-24T14:48:58;17.40;46.10
13436;DHT22;6790;49.520;8.504;2023-05-24T14:51:26;17.80;49.00
13436;DHT22;6790;49.520;8.504;2023-05-24T14:53:52;17.80;45.00
13436;DHT22;6790;49.520;8.504;2023-05-24T14:56:18;18.20;51.50
13436;DHT22;6790;49.520;8.504;2023-05-24T14:58:43;18.50;43.40
13436;DHT22;6790;49.520;8.504;2023-05-24T15:01:09;18.20;43.80
13436;DHT22;6790;49.520;8.504;2023-05-24T15:03:35;17.80;43.60
13436;DHT22;6790;49.520;8.504;2023-05-24T15:06:01;17.60;47.40
13436;DHT22;6790;49.520;8.504;2023-05-24T15:08:28;17.80;45.90
13436;DHT22;6790;49.520;8.504;2023-05-24T15:10:53;17.90;45.10
13436;DHT22;6790;49.520;8.504;2023-05-24T15:13:19;17.50;45.50
13436;DHT22;6790;49.520;8.504;2023-05-24T15:15:46;17.30;46.30
13436;DHT22;6790;49.520;8.504;2023-05-24T15:18:12;17.20;47.30
13436;DHT22;6790;49.520;8.504;2023-05-24T15:20:38;17.30;46.80
13436;DHT22;6790;49.520;8.504;2023-05-24T15:23:04;17.30;47.80
13436;DHT22;6790;49.520;8.504;2023-05-24T15:25:30;17.40;49.30
13436;DHT22;6790;49.520;8.504;2023-05-24T15:27:55;17.20;47.00
13436;DHT22;6790;49.520;8.504;2023-05-24T15:30:22;17.00;46.30
13436;DHT22;6790;49.520;8.504;2023-05-24T15:32:48;16.70;45.80
13436;DHT22;6790;49.520;8.504;2023-05-24T15:35:14;16.50;47.80
13436;DHT22;6790;49.520;8.504;2023-05-24T15:37:41;16.60;49.70
13436;DHT22;6790;49.520;8.504;2023-05-24T15:40:08;16.60;48.70
13436;DHT22;6790;49.520;8.504;2023-05-24T15:42:35;16.60;50.30
13436;DHT22;6790;49.520;8.504;2023-05-24T15:45:01;16.70;51.10
13436;DHT22;6790;49.520;8.504;2023-05-24T15:47:27;16.50;48.70
13436;DHT22;6790;49.520;8.504;2023-05-24T15:49:54;16.60;49.60
13436;DHT22;6790;49.520;8.504;2023-05-24T15:52:20;16.60;50.70
13436;DHT22;6790;49.520;8.504;2023-05-24T15:54:46;16.60;51.30
13436;DHT22;6790;49.520;8.504;2023-05-24T15:57:12;16.40;50.10
13436;DHT22;6790;49.520;8.504;2023-05-24T15:59:38;16.60;50.80